Time;durP1;ratioP1;P1;durP2;ratioP2;P2;SDS_P1;SDS_P2;PMS_P1;PMS_P2;Temp;Humidity;BMP_temperature;BMP_pressure;BME280_temperature;BME280_humidity;BME280_pressure;Samples;Min_cycle;Max_cycle;Signal;HPM_P1;HPM_P2
2022/09/19 00:01:16;;;;;;;1.97;0.40;;;8.40;99.90;;;;;;5138732;27;20683;-45
2022/09/19 00:03:44;;;;;;;1.00;0.60;;;8.30;99.90;;;;;;5138198;27;20478;-44
2022/09/19 00:06:12;;;;;;;1.00;0.60;;;8.30;99.90;;;;;;5120335;28;20426;-44
2022/09/19 00:08:39;;;;;;;0.90;0.40;;;8.20;99.90;;;;;;5138360;27;20437;-46
2022/09/19 00:11:06;;;;;;;1.10;0.50;;;8.00;99.90;;;;;;5120144;28;20757;-44
2022/09/19 00:13:35;;;;;;;1.00;0.50;;;8.00;99.90;;;;;;5137931;27;20433;-44
2022/09/19 00:16:01;;;;;;;1.73;0.50;;;8.00;99.90;;;;;;5137939;27;20405;-44
2022/09/19 00:18:28;;;;;;;0.90;0.40;;;8.00;99.90;;;;;;5137229;27;20429;-43
2022/09/19 00:20:54;;;;;;;1.83;0.50;;;8.00;99.90;;;;;;5117694;28;20445;-44
2022/09/19 00:26:07;;;;;;;1.30;0.67;;;8.10;99.90;;;;;;5138035;28;20507;-42
2022/09/19 00:28:34;;;;;;;0.70;0.40;;;8.10;99.90;;;;;;5138062;28;20452;-43
2022/09/19 00:31:00;;;;;;;1.13;0.40;;;8.10;99.90;;;;;;5138172;28;20489;-45
2022/09/19 00:33:27;;;;;;;1.83;0.60;;;8.10;99.90;;;;;;5120561;28;20417;-44
2022/09/19 00:35:54;;;;;;;1.53;0.60;;;8.10;99.90;;;;;;5120099;28;20468;-44
2022/09/19 00:38:24;;;;;;;0.90;0.50;;;7.90;99.90;;;;;;5137519;28;20421;-44
2022/09/19 00:40:50;;;;;;;1.00;0.60;;;7.90;99.90;;;;;;5138448;28;20441;-43
2022/09/19 00:43:18;;;;;;;0.87;0.47;;;7.90;99.90;;;;;;5138370;28;20484;-43
2022/09/19 00:45:44;;;;;;;1.17;0.53;;;7.90;99.90;;;;;;5137728;28;20500;-44
2022/09/19 00:48:11;;;;;;;0.80;0.40;;;7.90;99.90;;;;;;5137454;28;20421;-43
2022/09/19 00:50:37;;;;;;;0.90;0.40;;;7.90;99.90;;;;;;5137262;28;20435;-43
2022/09/19 00:53:16;;;;;;;0.90;0.40;;;7.80;99.90;;;;;;5120150;28;20497;-43
2022/09/19 00:55:42;;;;;;;0.80;0.40;;;7.80;99.90;;;;;;5137961;28;20596;-44
2022/09/19 00:58:26;;;;;;;1.00;0.40;;;7.80;99.90;;;;;;5119707;28;20886;-46
2022/09/19 01:00:52;;;;;;;2.40;0.47;;;7.80;99.90;;;;;;5136780;28;20525;-43
2022/09/19 01:03:17;;;;;;;1.47;1.00;;;7.70;99.90;;;;;;5136355;28;20551;-44
2022/09/19 01:06:02;;;;;;;0.90;0.53;;;7.70;99.90;;;;;;5137390;28;20191;-45
2022/09/19 01:08:50;;;;;;;1.00;0.50;;;7.70;99.90;;;;;;5118764;28;20175;-42
2022/09/19 01:11:21;;;;;;;1.23;0.57;;;7.60;99.90;;;;;;5119212;28;20762;-44
2022/09/19 01:14:14;;;;;;;1.20;0.70;;;7.60;99.90;;;;;;5136195;28;20408;-44
2022/09/19 01:16:42;;;;;;;1.03;0.50;;;7.60;99.90;;;;;;5138155;28;20714;-48
2022/09/19 01:19:35;;;;;;;0.90;0.60;;;7.50;99.90;;;;;;5119533;28;20833;-44
2022/09/19 01:22:24;;;;;;;1.00;0.57;;;7.50;99.90;;;;;;5119902;28;20496;-45
2022/09/19 01:24:55;;;;;;;1.10;0.50;;;7.50;99.90;;;;;;5126189;28;20492;-43
2022/09/19 01:27:33;;;;;;;3.00;0.57;;;7.50;99.90;;;;;;5136595;28;20413;-43
2022/09/19 01:30:00;;;;;;;1.10;0.60;;;7.50;99.90;;;;;;5137345;28;20853;-45
2022/09/19 01:32:30;;;;;;;1.27;0.53;;;7.40;99.90;;;;;;5120015;27;20445;-42
2022/09/19 01:35:03;;;;;;;0.90;0.60;;;7.40;99.90;;;;;;5121018;27;20490;-41
2022/09/19 01:37:47;;;;;;;1.30;0.90;;;7.40;99.90;;;;;;5138578;27;20413;-42
2022/09/19 01:40:13;;;;;;;1.07;0.70;;;7.40;99.90;;;;;;5121752;27;20860;-42
2022/09/19 01:42:51;;;;;;;0.77;0.53;;;7.40;99.90;;;;;;5121978;27;20417;-42
2022/09/19 01:45:16;;;;;;;1.30;0.47;;;7.30;99.90;;;;;;5105249;27;20720;-45
2022/09/19 01:48:30;;;;;;;1.00;0.70;;;7.30;99.90;;;;;;5140561;27;20401;-47
2022/09/19 01:51:16;;;;;;;1.40;1.23;;;7.30;99.90;;;;;;5132751;27;20191;-43
2022/09/19 01:54:21;;;;;;;1.57;0.70;;;7.20;99.90;;;;;;5122165;27;20516;-46
2022/09/19 01:57:31;;;;;;;2.40;0.70;;;7.20;99.90;;;;;;5138854;27;20512;-47
2022/09/19 02:00:08;;;;;;;1.20;0.83;;;7.10;99.90;;;;;;5055204;28;20587;-46
2022/09/19 02:02:56;;;;;;;0.90;0.70;;;7.10;99.90;;;;;;5128409;27;20442;-44
2022/09/19 02:05:47;;;;;;;1.40;1.20;;;7.10;99.90;;;;;;5137958;27;20494;-44
2022/09/19 02:08:35;;;;;;;1.30;0.97;;;7.10;99.90;;;;;;5138500;27;20409;-45
2022/09/19 02:11:14;;;;;;;1.20;1.03;;;7.00;99.90;;;;;;5128982;27;20879;-45
2022/09/19 02:13:44;;;;;;;2.23;1.10;;;7.00;99.90;;;;;;5123403;27;20507;-42
2022/09/19 02:16:18;;;;;;;1.23;1.00;;;7.00;99.90;;;;;;5122190;27;20904;-43
2022/09/19 02:18:54;;;;;;;2.80;1.00;;;7.00;99.90;;;;;;5122413;27;20421;-49
2022/09/19 02:21:39;;;;;;;4.27;1.50;;;7.00;99.90;;;;;;5122440;27;20429;-45
2022/09/19 02:24:17;;;;;;;1.67;1.20;;;6.90;99.90;;;;;;5122672;27;20529;-43
2022/09/19 02:26:44;;;;;;;1.43;1.27;;;6.90;99.90;;;;;;5140702;27;20511;-47
2022/09/19 02:29:13;;;;;;;1.30;1.20;;;6.90;99.90;;;;;;5122117;27;20402;-44
2022/09/19 02:31:39;;;;;;;2.20;1.40;;;6.90;99.90;;;;;;5121541;27;20431;-46
2022/09/19 02:34:06;;;;;;;1.60;1.50;;;6.90;99.90;;;;;;5122737;27;20524;-44
2022/09/19 02:36:37;;;;;;;1.50;1.40;;;6.90;99.90;;;;;;5139503;27;20441;-43
2022/09/19 02:39:22;;;;;;;2.50;1.13;;;6.90;99.90;;;;;;5140255;27;20677;-44
2022/09/19 02:42:22;;;;;;;3.07;1.20;;;6.90;99.90;;;;;;5139322;27;20408;-44
2022/09/19 02:44:58;;;;;;;2.30;1.30;;;6.90;99.90;;;;;;5122177;27;20448;-43
2022/09/19 02:47:34;;;;;;;1.20;1.00;;;6.90;99.90;;;;;;5139561;27;20500;-43
2022/09/19 02:50:06;;;;;;;3.33;1.30;;;6.90;99.90;;;;;;5121834;27;20412;-42
2022/09/19 02:52:33;;;;;;;1.80;1.07;;;6.90;99.90;;;;;;5120907;27;20713;-42
2022/09/19 02:55:05;;;;;;;1.73;1.10;;;6.90;99.90;;;;;;5138813;27;20554;-44
2022/09/19 02:57:32;;;;;;;2.80;0.87;;;6.90;99.90;;;;;;5103468;27;20464;-43
2022/09/19 03:00:01;;;;;;;1.57;1.07;;;6.80;99.90;;;;;;5120620;27;20409;-44
2022/09/19 03:02:30;;;;;;;1.97;1.07;;;6.80;99.90;;;;;;5119710;27;20533;-45
2022/09/19 03:05:10;;;;;;;1.63;1.33;;;6.90;99.90;;;;;;5119243;27;20514;-44
2022/09/19 03:07:58;;;;;;;4.10;1.30;;;6.80;99.90;;;;;;5121021;27;20509;-41
2022/09/19 03:10:29;;;;;;;4.70;1.47;;;6.80;99.90;;;;;;5121239;27;20806;-42
2022/09/19 03:13:00;;;;;;;2.60;1.13;;;6.80;99.90;;;;;;5138293;27;20801;-41
2022/09/19 03:15:35;;;;;;;4.53;1.30;;;6.80;99.90;;;;;;5120978;27;20466;-45
2022/09/19 03:18:01;;;;;;;3.23;1.40;;;6.80;99.90;;;;;;5138418;27;20416;-45
2022/09/19 03:20:27;;;;;;;3.20;1.83;;;6.80;99.90;;;;;;5119430;27;20460;-46
2022/09/19 03:22:53;;;;;;;5.40;1.43;;;6.70;99.90;;;;;;5118424;27;20453;-44
2022/09/19 03:25:19;;;;;;;3.50;1.53;;;6.70;99.90;;;;;;5136576;27;20176;-43
2022/09/19 03:27:45;;;;;;;6.73;1.40;;;6.70;99.90;;;;;;5136115;27;20699;-43
2022/09/19 03:30:13;;;;;;;3.67;1.23;;;6.70;99.90;;;;;;5118584;27;20428;-43
2022/09/19 03:32:39;;;;;;;3.43;1.80;;;6.60;99.90;;;;;;5136957;27;20529;-41
2022/09/19 03:35:06;;;;;;;3.27;1.40;;;6.60;99.90;;;;;;5135879;27;20860;-41
2022/09/19 03:37:32;;;;;;;5.90;1.33;;;6.70;99.90;;;;;;5138903;27;20409;-44
2022/09/19 03:39:58;;;;;;;3.70;1.80;;;6.60;99.90;;;;;;5139097;27;20712;-44
2022/09/19 03:42:25;;;;;;;2.30;1.23;;;6.60;99.90;;;;;;5137807;27;20417;-44
2022/09/19 03:44:51;;;;;;;4.27;1.37;;;6.60;99.90;;;;;;5137988;27;20468;-43
2022/09/19 03:47:18;;;;;;;3.40;1.70;;;6.70;99.90;;;;;;5138002;27;20405;-44
2022/09/19 03:49:44;;;;;;;2.30;1.20;;;6.70;99.90;;;;;;5138001;27;20421;-44
2022/09/19 03:52:10;;;;;;;1.80;1.27;;;6.80;99.90;;;;;;5136672;27;20406;-42
2022/09/19 03:54:36;;;;;;;2.20;1.40;;;6.80;99.90;;;;;;5135240;27;20235;-45
2022/09/19 03:57:01;;;;;;;2.30;1.33;;;6.80;99.90;;;;;;5136210;27;20485;-42
2022/09/19 03:59:27;;;;;;;3.07;1.60;;;6.80;99.90;;;;;;5135295;27;20262;-44
2022/09/19 04:01:54;;;;;;;2.00;1.50;;;6.90;99.90;;;;;;5134881;27;20498;-43
2022/09/19 04:04:21;;;;;;;4.63;2.57;;;6.90;99.90;;;;;;5134256;27;20234;-42
2022/09/19 04:06:47;;;;;;;3.07;1.73;;;6.90;99.90;;;;;;5115861;27;20401;-46
2022/09/19 04:09:12;;;;;;;6.87;2.20;;;6.90;99.90;;;;;;5135680;27;20921;-45
2022/09/19 04:11:41;;;;;;;2.37;1.50;;;6.90;99.90;;;;;;5137040;27;20405;-44
2022/09/19 04:14:06;;;;;;;1.80;1.20;;;6.90;99.90;;;;;;5137467;27;20514;-44
2022/09/19 04:16:32;;;;;;;5.10;1.47;;;6.90;99.90;;;;;;5137450;27;20500;-46
2022/09/19 04:18:58;;;;;;;6.30;1.60;;;6.90;99.90;;;;;;5136086;27;20485;-44
2022/09/19 04:21:25;;;;;;;3.93;1.63;;;6.90;99.90;;;;;;5136030;27;20285;-42
2022/09/19 04:23:51;;;;;;;4.50;2.03;;;6.90;99.90;;;;;;5134871;28;20709;-42
2022/09/19 04:26:17;;;;;;;1.63;1.23;;;6.90;99.90;;;;;;5133960;28;20642;-43
2022/09/19 04:28:43;;;;;;;2.03;1.30;;;6.90;99.90;;;;;;5134852;28;20172;-44
2022/09/19 04:31:12;;;;;;;5.80;1.60;;;6.90;99.90;;;;;;5134258;28;20451;-42
2022/09/19 04:33:38;;;;;;;4.63;1.60;;;6.90;99.90;;;;;;5134038;28;20424;-42
2022/09/19 04:36:05;;;;;;;3.10;1.50;;;7.00;99.90;;;;;;5133687;28;20852;-45
2022/09/19 04:38:32;;;;;;;4.03;1.50;;;7.00;99.90;;;;;;5133980;28;20416;-42
2022/09/19 04:40:59;;;;;;;4.53;1.70;;;7.00;99.90;;;;;;5135639;28;20436;-42
2022/09/19 04:43:26;;;;;;;5.03;1.80;;;7.10;99.90;;;;;;5134430;28;20456;-42
2022/09/19 04:45:55;;;;;;;2.13;1.20;;;7.10;99.90;;;;;;5135032;28;20443;-44
2022/09/19 04:48:22;;;;;;;4.10;1.53;;;7.20;99.90;;;;;;5133490;28;20405;-41
2022/09/19 04:50:50;;;;;;;5.43;1.60;;;7.20;99.90;;;;;;5132695;28;20428;-43
2022/09/19 04:53:22;;;;;;;4.10;1.50;;;7.30;99.90;;;;;;5132309;28;20420;-45
2022/09/19 04:55:50;;;;;;;2.90;1.30;;;7.30;99.90;;;;;;5131076;28;20480;-43
2022/09/19 04:58:15;;;;;;;4.20;1.60;;;7.30;99.90;;;;;;5132225;28;20495;-42
2022/09/19 05:00:50;;;;;;;3.20;1.50;;;7.40;99.90;;;;;;5131040;28;20576;-43
2022/09/19 05:03:16;;;;;;;4.30;1.80;;;7.40;99.90;;;;;;5132047;28;20202;-42
2022/09/19 05:05:44;;;;;;;3.90;1.87;;;7.40;99.90;;;;;;5134901;27;20421;-45
2022/09/19 05:08:12;;;;;;;2.50;1.37;;;7.50;99.90;;;;;;5137858;27;20405;-41
2022/09/19 05:10:38;;;;;;;4.00;1.80;;;7.50;99.90;;;;;;5135342;27;20504;-43
2022/09/19 05:13:04;;;;;;;3.37;2.30;;;7.50;99.90;;;;;;5137147;27;20561;-44
2022/09/19 05:15:30;;;;;;;4.60;1.50;;;7.50;99.90;;;;;;5135273;27;20553;-43
2022/09/19 05:17:56;;;;;;;2.03;1.47;;;7.50;99.90;;;;;;5133833;27;20499;-43
2022/09/19 05:20:25;;;;;;;3.83;1.70;;;7.60;99.90;;;;;;5132453;27;20208;-42
2022/09/19 05:22:54;;;;;;;6.17;1.97;;;7.60;99.90;;;;;;5134004;27;20172;-41
2022/09/19 05:25:20;;;;;;;3.77;1.30;;;7.50;99.90;;;;;;5135363;27;20505;-43
2022/09/19 05:27:45;;;;;;;2.17;1.20;;;7.50;99.90;;;;;;5129209;27;20397;-45
2022/09/19 05:30:11;;;;;;;2.90;1.50;;;7.50;99.90;;;;;;5128540;27;20455;-45
2022/09/19 05:32:44;;;;;;;5.83;1.63;;;7.50;99.90;;;;;;5131842;27;20708;-46
2022/09/19 05:35:10;;;;;;;4.37;1.83;;;7.60;99.90;;;;;;5131214;27;20449;-43
2022/09/19 05:37:39;;;;;;;11.33;2.27;;;7.60;99.90;;;;;;5132421;27;20444;-43
2022/09/19 05:40:05;;;;;;;4.23;1.80;;;7.70;99.90;;;;;;5135024;27;20413;-44
2022/09/19 05:42:31;;;;;;;3.50;1.50;;;7.70;99.90;;;;;;5133805;27;20822;-44
2022/09/19 05:44:57;;;;;;;4.70;1.70;;;7.80;99.90;;;;;;5133298;27;20460;-44
2022/09/19 05:47:23;;;;;;;3.00;1.53;;;7.80;99.90;;;;;;5134349;27;20513;-42
2022/09/19 05:49:48;;;;;;;4.33;2.10;;;7.90;99.90;;;;;;5133632;27;20171;-43
2022/09/19 05:54:58;;;;;;;4.67;1.90;;;8.00;99.90;;;;;;5136286;27;20287;-44
2022/09/19 05:57:23;;;;;;;3.30;2.00;;;8.00;99.90;;;;;;5137377;27;20425;-43
2022/09/19 05:59:49;;;;;;;4.57;1.90;;;8.00;99.90;;;;;;5134426;27;20187;-43
2022/09/19 06:02:15;;;;;;;5.40;1.47;;;8.10;99.90;;;;;;5133880;27;20180;-43
2022/09/19 06:04:40;;;;;;;6.57;1.70;;;8.00;99.90;;;;;;5134227;27;20221;-42
2022/09/19 06:07:06;;;;;;;6.73;1.97;;;8.10;99.90;;;;;;5134228;27;20197;-45
2022/09/19 06:09:31;;;;;;;4.93;1.70;;;8.20;99.90;;;;;;5133553;27;20232;-43
2022/09/19 06:11:57;;;;;;;5.20;1.70;;;8.30;99.90;;;;;;5133134;27;20543;-44
2022/09/19 06:14:23;;;;;;;6.17;2.63;;;8.40;99.90;;;;;;5131807;27;20479;-43
2022/09/19 06:16:49;;;;;;;9.40;2.50;;;8.40;99.90;;;;;;5134768;27;20175;-43
2022/09/19 06:19:15;;;;;;;3.00;1.90;;;8.40;99.90;;;;;;5118356;27;20504;-41
2022/09/19 06:21:40;;;;;;;6.97;2.13;;;8.40;99.90;;;;;;5137615;27;20433;-43
2022/09/19 06:24:09;;;;;;;4.17;2.60;;;8.40;99.90;;;;;;5134780;27;20203;-43
2022/09/19 06:26:35;;;;;;;4.27;1.50;;;8.50;99.90;;;;;;5128880;27;20426;-43
2022/09/19 06:29:03;;;;;;;4.20;1.63;;;8.50;99.90;;;;;;5133148;27;20447;-43
2022/09/19 06:31:29;;;;;;;7.83;1.63;;;8.60;99.90;;;;;;5134616;27;20183;-43
2022/09/19 06:33:55;;;;;;;3.10;1.40;;;8.70;99.90;;;;;;5132948;27;20433;-43
2022/09/19 06:36:20;;;;;;;6.63;2.20;;;8.80;99.90;;;;;;5136002;27;20432;-43
2022/09/19 06:38:46;;;;;;;6.30;1.87;;;8.90;99.90;;;;;;5136240;27;20421;-46
2022/09/19 06:41:13;;;;;;;5.43;1.90;;;8.90;99.90;;;;;;5135972;27;20242;-45
2022/09/19 06:43:38;;;;;;;9.53;2.50;;;8.90;99.90;;;;;;5137452;27;20202;-43
2022/09/19 06:46:04;;;;;;;4.60;2.17;;;8.80;99.90;;;;;;5137871;27;20522;-44
2022/09/19 06:48:30;;;;;;;5.87;1.67;;;8.90;99.90;;;;;;5137517;27;20171;-43
2022/09/19 06:50:56;;;;;;;7.20;2.23;;;9.00;99.90;;;;;;5137157;27;20490;-42
2022/09/19 06:53:22;;;;;;;4.93;1.70;;;9.00;99.90;;;;;;5135933;27;20464;-43
2022/09/19 06:55:48;;;;;;;7.00;2.40;;;9.10;99.90;;;;;;5121575;27;20224;-43
2022/09/19 06:58:15;;;;;;;9.37;2.50;;;9.20;99.90;;;;;;5116037;28;20406;-42
2022/09/19 07:00:44;;;;;;;3.43;1.83;;;9.10;99.90;;;;;;5116834;28;20179;-41
2022/09/19 07:03:15;;;;;;;4.73;2.17;;;9.20;99.90;;;;;;5117626;28;20953;-45
2022/09/19 07:05:42;;;;;;;6.90;1.60;;;9.30;99.90;;;;;;5096710;28;20435;-42
2022/09/19 07:08:09;;;;;;;5.67;1.70;;;9.40;99.90;;;;;;5116603;28;20398;-46
2022/09/19 07:10:36;;;;;;;6.07;2.27;;;9.40;99.90;;;;;;5117323;28;20402;-43
2022/09/19 07:13:03;;;;;;;10.83;2.00;;;9.50;99.90;;;;;;5117607;28;20706;-42
2022/09/19 07:15:31;;;;;;;6.87;1.87;;;9.50;99.90;;;;;;5117068;28;20669;-43
2022/09/19 07:17:57;;;;;;;5.93;2.00;;;9.70;99.90;;;;;;5117911;28;20414;-44
2022/09/19 07:20:23;;;;;;;5.20;2.30;;;10.00;99.90;;;;;;5115713;28;20824;-44
2022/09/19 07:23:13;;;;;;;3.23;2.10;;;10.00;99.90;;;;;;5120797;27;20191;-47
2022/09/19 07:25:40;;;;;;;4.57;1.80;;;10.30;99.90;;;;;;5137142;27;20410;-43
2022/09/19 07:28:08;;;;;;;7.87;2.77;;;10.20;99.80;;;;;;5129609;27;20426;-45
2022/09/19 07:30:35;;;;;;;3.80;2.00;;;10.10;99.90;;;;;;5097472;28;20403;-46
2022/09/19 07:33:02;;;;;;;5.67;1.90;;;10.10;99.90;;;;;;5114389;28;20412;-44
2022/09/19 07:35:30;;;;;;;3.30;1.80;;;10.10;99.90;;;;;;5114501;28;20752;-43
2022/09/19 07:37:56;;;;;;;7.10;2.33;;;10.20;99.90;;;;;;5114899;28;20461;-47
2022/09/19 07:40:22;;;;;;;5.17;1.70;;;10.20;99.90;;;;;;5116167;28;20417;-42
2022/09/19 07:42:49;;;;;;;12.47;2.27;;;10.20;99.70;;;;;;5115282;28;20494;-46
2022/09/19 07:45:16;;;;;;;6.40;2.10;;;10.30;99.70;;;;;;5113661;28;20437;-42
2022/09/19 07:47:46;;;;;;;5.60;1.97;;;10.20;99.90;;;;;;5113233;28;20513;-45
2022/09/19 07:50:14;;;;;;;6.70;2.40;;;10.30;99.90;;;;;;5116135;28;20402;-45
2022/09/19 07:52:41;;;;;;;4.77;1.67;;;10.40;99.90;;;;;;5116918;27;20430;-49
2022/09/19 07:55:09;;;;;;;5.70;2.70;;;10.80;99.90;;;;;;5115315;28;20462;-46
2022/09/19 07:57:35;;;;;;;11.30;1.90;;;11.20;99.90;;;;;;5112544;28;20453;-47
2022/09/19 08:00:01;;;;;;;6.17;2.43;;;11.80;99.90;;;;;;5114552;28;20449;-44
2022/09/19 08:02:26;;;;;;;4.90;1.73;;;12.20;98.40;;;;;;5114946;28;20483;-45
2022/09/19 08:04:52;;;;;;;6.60;1.87;;;12.50;99.70;;;;;;5116268;28;20204;-44
2022/09/19 08:07:17;;;;;;;5.17;2.43;;;12.40;97.00;;;;;;5116972;28;20248;-46
2022/09/19 08:09:43;;;;;;;5.40;1.60;;;12.40;96.60;;;;;;5114225;28;20562;-46
2022/09/19 08:12:12;;;;;;;5.37;1.80;;;12.10;96.70;;;;;;5114156;28;20459;-43
2022/09/19 08:14:38;;;;;;;6.63;2.00;;;12.20;96.80;;;;;;5116087;28;20271;-44
2022/09/19 08:17:04;;;;;;;5.73;2.63;;;12.10;96.70;;;;;;5116638;28;20535;-42
2022/09/19 08:19:29;;;;;;;4.43;2.07;;;11.90;96.80;;;;;;5116246;28;20449;-42
2022/09/19 08:21:57;;;;;;;5.53;2.00;;;11.70;97.50;;;;;;5114984;28;20178;-46
2022/09/19 08:24:22;;;;;;;5.53;2.00;;;11.80;97.70;;;;;;5115554;28;20226;-45
2022/09/19 08:26:48;;;;;;;6.60;2.27;;;11.60;97.70;;;;;;5116104;28;20407;-45
2022/09/19 08:29:14;;;;;;;10.57;2.40;;;11.40;98.30;;;;;;5116295;28;20178;-46
2022/09/19 08:31:39;;;;;;;13.73;3.23;;;11.40;98.50;;;;;;5127934;28;20503;-45
2022/09/19 08:34:05;;;;;;;11.20;2.70;;;11.30;99.10;;;;;;5129804;28;20179;-44
2022/09/19 08:36:33;;;;;;;5.73;2.10;;;11.20;98.60;;;;;;5128301;27;20175;-44
2022/09/19 08:38:58;;;;;;;4.17;1.80;;;11.30;99.00;;;;;;5134071;28;20259;-45
2022/09/19 08:41:41;;;;;;;6.73;2.03;;;11.40;99.00;;;;;;5137842;27;20500;-45
2022/09/19 08:44:21;;;;;;;9.27;2.33;;;11.50;98.30;;;;;;5138623;28;20688;-45
2022/09/19 08:47:02;;;;;;;10.50;2.87;;;11.60;98.20;;;;;;5132239;28;20411;-45
2022/09/19 08:49:44;;;;;;;5.13;2.13;;;11.80;98.00;;;;;;5099659;28;20696;-44
2022/09/19 08:52:40;;;;;;;12.77;3.27;;;11.90;97.70;;;;;;5125622;28;20489;-44
2022/09/19 08:55:07;;;;;;;8.37;3.30;;;12.30;97.10;;;;;;5078344;28;1114446;-42
2022/09/19 08:57:35;;;;;;;12.33;2.70;;;12.10;97.10;;;;;;5119067;28;20559;-45
2022/09/19 09:00:05;;;;;;;3.73;1.90;;;12.30;97.50;;;;;;5118241;28;20517;-44
2022/09/19 09:02:56;;;;;;;6.20;2.20;;;12.50;97.40;;;;;;5116694;28;20418;-43
2022/09/19 09:05:34;;;;;;;7.60;2.53;;;12.40;96.10;;;;;;5116618;28;20196;-44
2022/09/19 09:08:25;;;;;;;7.93;2.80;;;12.30;96.30;;;;;;5117248;28;20409;-45
2022/09/19 09:10:53;;;;;;;6.70;2.07;;;12.50;96.30;;;;;;5116725;28;20422;-44
2022/09/19 09:13:25;;;;;;;8.27;2.40;;;12.70;96.00;;;;;;5117882;28;20421;-44
2022/09/19 09:16:16;;;;;;;6.90;2.20;;;12.60;95.60;;;;;;5102437;28;20445;-46
2022/09/19 09:18:58;;;;;;;4.60;2.00;;;12.30;95.40;;;;;;5096179;28;20541;-45
2022/09/19 09:21:49;;;;;;;7.77;2.77;;;12.10;96.50;;;;;;5096182;28;20503;-41
2022/09/19 09:24:34;;;;;;;8.13;2.60;;;11.80;97.00;;;;;;5097514;28;20510;-44
2022/09/19 09:27:03;;;;;;;5.20;2.80;;;11.80;97.00;;;;;;5098245;28;20415;-43
2022/09/19 09:29:33;;;;;;;7.90;2.23;;;11.80;96.70;;;;;;5080440;28;20499;-46
2022/09/19 09:32:16;;;;;;;11.30;3.00;;;11.70;96.80;;;;;;5097184;28;20502;-47
2022/09/19 09:35:02;;;;;;;8.37;3.07;;;11.80;97.20;;;;;;5097460;28;20419;-46
2022/09/19 09:37:32;;;;;;;5.00;1.87;;;11.80;96.60;;;;;;5098186;28;20613;-47
2022/09/19 09:40:12;;;;;;;5.37;2.60;;;12.00;97.10;;;;;;5098393;28;20453;-42
2022/09/19 09:42:47;;;;;;;6.80;2.10;;;11.80;96.50;;;;;;5100628;28;20480;-43
2022/09/19 09:45:34;;;;;;;7.73;2.77;;;11.70;96.70;;;;;;5116895;28;20492;-47
2022/09/19 09:48:06;;;;;;;3.10;1.83;;;11.70;96.90;;;;;;5116705;27;20429;-42
2022/09/19 09:50:48;;;;;;;9.53;2.50;;;11.70;96.60;;;;;;5120753;28;20823;-42
2022/09/19 09:53:13;;;;;;;3.20;2.00;;;11.70;96.50;;;;;;5118050;28;20441;-46
2022/09/19 09:58:49;;;;;;;5.80;1.83;;;12.00;96.70;;;;;;5122388;27;20223;-44
2022/09/19 10:04:33;;;;;;;4.20;1.77;;;12.30;96.20;;;;;;5122983;27;20922;-44
2022/09/19 10:07:00;;;;;;;8.03;2.40;;;12.50;95.70;;;;;;5139122;27;20467;-43
2022/09/19 10:09:33;;;;;;;7.20;2.20;;;12.70;95.60;;;;;;5135896;27;20877;-45
2022/09/19 10:12:07;;;;;;;6.33;2.27;;;12.90;95.50;;;;;;5104721;28;20503;-45
2022/09/19 10:14:35;;;;;;;4.37;2.10;;;13.30;95.30;;;;;;5099826;28;20425;-46
2022/09/19 10:17:03;;;;;;;4.80;1.60;;;13.40;94.40;;;;;;5082606;28;20448;-44
2022/09/19 10:19:44;;;;;;;4.70;1.97;;;13.30;94.20;;;;;;5099481;28;20402;-42
2022/09/19 10:22:14;;;;;;;4.20;1.50;;;13.30;93.30;;;;;;5116853;28;20423;-42
2022/09/19 10:24:46;;;;;;;7.37;1.80;;;13.50;93.10;;;;;;5117212;28;20470;-44
2022/09/19 10:27:27;;;;;;;5.80;1.53;;;13.90;92.90;;;;;;5118206;28;20418;-48
2022/09/19 10:30:16;;;;;;;5.63;1.53;;;14.30;92.20;;;;;;5100116;28;20697;-45
2022/09/19 10:32:43;;;;;;;4.43;1.70;;;14.40;91.80;;;;;;5115916;28;20422;-43
2022/09/19 10:35:37;;;;;;;3.50;1.70;;;14.30;91.80;;;;;;5097847;28;20422;-47
2022/09/19 10:38:14;;;;;;;6.00;1.63;;;14.10;92.00;;;;;;5115165;28;20517;-44
2022/09/19 10:41:07;;;;;;;2.77;1.30;;;13.90;92.10;;;;;;5114949;28;20532;-43
2022/09/19 10:43:44;;;;;;;3.97;1.60;;;13.60;92.50;;;;;;5111538;28;20462;-44
2022/09/19 10:46:17;;;;;;;6.17;1.77;;;13.50;93.50;;;;;;5079740;28;20878;-44
2022/09/19 10:48:51;;;;;;;4.47;1.30;;;13.70;94.10;;;;;;5095285;28;20532;-45
2022/09/19 10:51:17;;;;;;;4.83;1.40;;;14.50;93.60;;;;;;5096156;28;20482;-44
2022/09/19 10:53:55;;;;;;;4.17;2.30;;;15.60;92.60;;;;;;5094833;28;20398;-45
2022/09/19 10:56:26;;;;;;;2.87;1.33;;;16.10;90.90;;;;;;5113883;28;20491;-46
2022/09/19 10:59:08;;;;;;;5.00;1.43;;;16.10;88.40;;;;;;5115425;28;20426;-46
2022/09/19 11:01:35;;;;;;;4.63;1.83;;;16.20;89.00;;;;;;5115118;28;20411;-45
2022/09/19 11:04:21;;;;;;;3.60;1.17;;;16.00;87.30;;;;;;5094507;28;20485;-45
2022/09/19 11:07:02;;;;;;;5.20;2.13;;;16.40;88.00;;;;;;5111154;27;20448;-43
2022/09/19 11:09:37;;;;;;;2.53;1.43;;;17.30;85.40;;;;;;5112312;28;20429;-45
2022/09/19 11:12:05;;;;;;;4.13;1.87;;;17.60;81.70;;;;;;5108615;28;20448;-44
2022/09/19 11:14:38;;;;;;;6.97;1.50;;;17.90;81.30;;;;;;5112256;28;20414;-43
2022/09/19 11:17:31;;;;;;;6.83;1.47;;;17.80;79.30;;;;;;5111298;28;20459;-43
2022/09/19 11:20:29;;;;;;;4.27;1.40;;;17.80;79.00;;;;;;5099026;28;20482;-46
2022/09/19 11:23:13;;;;;;;3.83;1.40;;;17.30;80.30;;;;;;5098676;28;20428;-44
2022/09/19 11:26:03;;;;;;;3.10;1.00;;;17.00;80.30;;;;;;5098803;28;21017;-47
2022/09/19 11:29:17;;;;;;;2.23;1.10;;;16.40;80.70;;;;;;5096555;28;20612;-46
2022/09/19 11:32:06;;;;;;;3.37;1.20;;;16.20;82.40;;;;;;5096473;28;20698;-45
2022/09/19 11:34:41;;;;;;;1.90;1.20;;;16.00;83.70;;;;;;5118211;27;20434;-46
2022/09/19 11:37:09;;;;;;;6.47;1.03;;;16.40;83.30;;;;;;5137116;27;20440;-47
2022/09/19 11:40:20;;;;;;;2.67;1.00;;;16.80;81.80;;;;;;5135567;27;20405;-45
2022/09/19 11:43:11;;;;;;;3.07;1.00;;;16.60;80.90;;;;;;5012501;28;20447;-45
2022/09/19 11:46:03;;;;;;;2.23;1.27;;;16.70;80.70;;;;;;4980955;28;20464;-46
2022/09/19 11:48:54;;;;;;;2.00;0.90;;;16.30;80.90;;;;;;5099506;28;20835;-44
2022/09/19 11:51:49;;;;;;;3.43;1.10;;;16.20;82.30;;;;;;5094336;28;20752;-43
2022/09/19 11:54:44;;;;;;;4.60;0.93;;;15.60;81.20;;;;;;5110103;28;20879;-43
2022/09/19 11:57:39;;;;;;;2.83;1.07;;;15.30;82.90;;;;;;5110521;28;20450;-44
2022/09/19 12:00:16;;;;;;;3.00;1.30;;;15.20;84.00;;;;;;5103427;28;20867;-45
2022/09/19 12:02:50;;;;;;;2.70;1.00;;;15.30;84.50;;;;;;5115748;28;20429;-44
2022/09/19 12:05:19;;;;;;;2.03;1.03;;;15.10;85.00;;;;;;5113803;28;20453;-42
2022/09/19 12:08:11;;;;;;;2.90;1.33;;;15.10;86.70;;;;;;5114319;28;20410;-45
2022/09/19 12:10:43;;;;;;;3.80;1.23;;;15.10;85.90;;;;;;5116005;28;20449;-44
2022/09/19 12:13:18;;;;;;;4.00;1.30;;;15.20;87.50;;;;;;5114500;28;20432;-44
2022/09/19 12:15:49;;;;;;;2.33;0.90;;;15.50;85.80;;;;;;5110776;28;20397;-44
2022/09/19 12:18:22;;;;;;;2.50;1.20;;;17.20;86.60;;;;;;5095069;28;20433;-49
2022/09/19 12:20:52;;;;;;;2.23;0.93;;;19.60;75.30;;;;;;5114416;28;20402;-43
2022/09/19 12:26:32;;;;;;;5.23;1.23;;;21.70;63.90;;;;;;5110972;28;20778;-42
2022/09/19 12:29:34;;;;;;;4.23;1.40;;;21.50;60.30;;;;;;5092972;28;20494;-44
2022/09/19 12:32:14;;;;;;;2.00;0.90;;;20.60;60.60;;;;;;5096866;28;20410;-45
2022/09/19 12:35:15;;;;;;;3.27;0.97;;;19.00;63.70;;;;;;5095099;28;20760;-46
2022/09/19 12:38:04;;;;;;;4.00;1.20;;;18.30;65.50;;;;;;5094636;28;20706;-45
2022/09/19 12:41:21;;;;;;;3.13;1.20;;;17.30;69.90;;;;;;5093637;28;20410;-43
2022/09/19 12:43:52;;;;;;;4.60;1.03;;;17.10;73.00;;;;;;5078814;28;20542;-43
2022/09/19 12:46:50;;;;;;;2.13;1.27;;;16.80;73.30;;;;;;5094914;28;20684;-44
2022/09/19 12:49:47;;;;;;;2.30;1.00;;;16.20;76.90;;;;;;5112672;28;20422;-47
2022/09/19 12:52:48;;;;;;;1.93;1.03;;;16.10;79.90;;;;;;5114366;28;20409;-44
2022/09/19 12:55:21;;;;;;;3.20;1.30;;;15.60;80.20;;;;;;5075746;28;20477;-44
2022/09/19 12:58:16;;;;;;;2.50;1.23;;;15.50;82.90;;;;;;5113722;28;20416;-44
2022/09/19 13:00:45;;;;;;;3.97;1.30;;;15.10;85.20;;;;;;5111650;28;20422;-44
2022/09/19 13:03:25;;;;;;;6.33;1.30;;;14.80;87.90;;;;;;5097351;28;20843;-45
2022/09/19 13:06:01;;;;;;;2.17;0.90;;;14.70;88.90;;;;;;5113456;28;20467;-43
2022/09/19 13:08:32;;;;;;;1.70;1.00;;;14.90;89.40;;;;;;5092684;28;20425;-45
2022/09/19 13:11:16;;;;;;;2.13;1.00;;;14.90;88.70;;;;;;5094074;28;20603;-42
2022/09/19 13:13:47;;;;;;;2.60;1.40;;;14.70;89.60;;;;;;5113562;28;20502;-44
2022/09/19 13:16:16;;;;;;;4.07;1.47;;;14.70;89.90;;;;;;5112336;28;20453;-42
2022/09/19 13:24:54;;;;;;;2.40;1.10;;;15.40;86.50;;;;;;5110365;28;20460;-42
2022/09/19 13:27:21;;;;;;;2.13;0.90;;;16.20;83.40;;;;;;5104959;27;20962;-43
2022/09/19 13:29:49;;;;;;;2.17;0.90;;;16.50;81.00;;;;;;5126068;27;20439;-44
2022/09/19 13:32:44;;;;;;;3.10;0.93;;;17.00;80.50;;;;;;5111119;27;20449;-44
2022/09/19 13:35:19;;;;;;;2.07;1.10;;;18.10;76.60;;;;;;5135949;27;20412;-43
2022/09/19 13:37:58;;;;;;;3.63;0.90;;;18.80;74.70;;;;;;5108891;28;20866;-46
2022/09/19 13:40:54;;;;;;;2.43;1.00;;;17.90;73.40;;;;;;5118058;28;20417;-43
2022/09/19 13:43:22;;;;;;;2.03;0.90;;;18.80;73.60;;;;;;5127972;27;20499;-44
2022/09/19 13:45:48;;;;;;;2.00;0.87;;;19.30;73.20;;;;;;5131265;27;21027;-46